sensor_id;sensor_type;location;lat;lon;timestamp;P1;durP1;ratioP1;P2;durP2;ratioP2
20844;SDS011;10583;49.084;8.646;2023-05-10T00:01:44;1.60;;;1.60;;
20844;SDS011;10583;49.084;8.646;2023-05-10T00:04:11;1.50;;;1.50;;
20844;SDS011;10583;49.084;8.646;2023-05-10T00:06:38;1.60;;;1.60;;
20844;SDS011;10583;49.084;8.646;2023-05-10T00:09:04;1.60;;;1.60;;
20844;SDS011;10583;49.084;8.646;2023-05-10T00:11:32;1.27;;;1.27;;
20844;SDS011;10583;49.084;8.646;2023-05-10T00:13:59;1.60;;;1.60;;
20844;SDS011;10583;49.084;8.646;2023-05-10T00:16:26;1.80;;;1.80;;
20844;SDS011;10583;49.084;8.646;2023-05-10T00:18:53;1.50;;;1.50;;
20844;SDS011;10583;49.084;8.646;2023-05-10T00:21:19;1.70;;;1.70;;
20844;SDS011;10583;49.084;8.646;2023-05-10T00:23:46;1.30;;;1.30;;
20844;SDS011;10583;49.084;8.646;2023-05-10T00:26:13;1.60;;;1.60;;
20844;SDS011;10583;49.084;8.646;2023-05-10T00:28:41;1.60;;;1.60;;
20844;SDS011;10583;49.084;8.646;2023-05-10T00:31:07;1.70;;;1.70;;
20844;SDS011;10583;49.084;8.646;2023-05-10T00:33:34;1.63;;;1.63;;
20844;SDS011;10583;49.084;8.646;2023-05-10T00:36:01;1.70;;;1.70;;
20844;SDS011;10583;49.084;8.646;2023-05-10T00:38:28;1.77;;;1.77;;
20844;SDS011;10583;49.084;8.646;2023-05-10T00:40:54;1.50;;;1.50;;
20844;SDS011;10583;49.084;8.646;2023-05-10T00:43:21;1.53;;;1.53;;
20844;SDS011;10583;49.084;8.646;2023-05-10T00:45:49;1.30;;;1.30;;
20844;SDS011;10583;49.084;8.646;2023-05-10T00:48:16;1.37;;;1.37;;
20844;SDS011;10583;49.084;8.646;2023-05-10T00:50:43;1.30;;;1.30;;
20844;SDS011;10583;49.084;8.646;2023-05-10T00:53:10;1.13;;;1.13;;
20844;SDS011;10583;49.084;8.646;2023-05-10T00:55:37;1.00;;;1.00;;
20844;SDS011;10583;49.084;8.646;2023-05-10T00:58:04;1.20;;;1.20;;
20844;SDS011;10583;49.084;8.646;2023-05-10T01:00:32;1.30;;;1.30;;
20844;SDS011;10583;49.084;8.646;2023-05-10T01:03:00;1.23;;;1.23;;
20844;SDS011;10583;49.084;8.646;2023-05-10T01:05:27;1.70;;;1.70;;
20844;SDS011;10583;49.084;8.646;2023-05-10T01:07:54;1.40;;;1.40;;
20844;SDS011;10583;49.084;8.646;2023-05-10T01:10:20;1.70;;;1.70;;
20844;SDS011;10583;49.084;8.646;2023-05-10T01:12:47;1.60;;;1.60;;
20844;SDS011;10583;49.084;8.646;2023-05-10T01:15:14;2.00;;;2.00;;
20844;SDS011;10583;49.084;8.646;2023-05-10T01:17:42;1.70;;;1.70;;
20844;SDS011;10583;49.084;8.646;2023-05-10T01:20:11;1.60;;;1.60;;
20844;SDS011;10583;49.084;8.646;2023-05-10T01:22:44;1.60;;;1.60;;
20844;SDS011;10583;49.084;8.646;2023-05-10T01:28:53;1.90;;;1.90;;
20844;SDS011;10583;49.084;8.646;2023-05-10T01:31:30;1.57;;;1.57;;
20844;SDS011;10583;49.084;8.646;2023-05-10T01:34:09;1.93;;;1.93;;
20844;SDS011;10583;49.084;8.646;2023-05-10T01:36:43;1.70;;;1.70;;
20844;SDS011;10583;49.084;8.646;2023-05-10T01:39:15;2.03;;;2.03;;
20844;SDS011;10583;49.084;8.646;2023-05-10T01:41:48;1.70;;;1.70;;
20844;SDS011;10583;49.084;8.646;2023-05-10T01:44:20;2.00;;;2.00;;
20844;SDS011;10583;49.084;8.646;2023-05-10T01:46:57;1.80;;;1.80;;
20844;SDS011;10583;49.084;8.646;2023-05-10T01:49:30;2.17;;;2.17;;
20844;SDS011;10583;49.084;8.646;2023-05-10T01:52:03;2.10;;;2.10;;
20844;SDS011;10583;49.084;8.646;2023-05-10T01:54:34;1.93;;;1.93;;
20844;SDS011;10583;49.084;8.646;2023-05-10T01:57:05;2.00;;;2.00;;
20844;SDS011;10583;49.084;8.646;2023-05-10T01:59:34;2.10;;;2.10;;
20844;SDS011;10583;49.084;8.646;2023-05-10T02:02:05;2.23;;;2.23;;
20844;SDS011;10583;49.084;8.646;2023-05-10T02:04:38;2.33;;;2.33;;
20844;SDS011;10583;49.084;8.646;2023-05-10T02:07:06;2.40;;;2.40;;
20844;SDS011;10583;49.084;8.646;2023-05-10T02:09:34;2.10;;;2.10;;
20844;SDS011;10583;49.084;8.646;2023-05-10T02:12:02;2.50;;;2.50;;
20844;SDS011;10583;49.084;8.646;2023-05-10T02:14:32;2.30;;;2.30;;
20844;SDS011;10583;49.084;8.646;2023-05-10T02:17:00;2.53;;;2.53;;
20844;SDS011;10583;49.084;8.646;2023-05-10T02:19:31;2.50;;;2.50;;
20844;SDS011;10583;49.084;8.646;2023-05-10T02:22:01;3.10;;;3.10;;
20844;SDS011;10583;49.084;8.646;2023-05-10T02:24:29;2.90;;;2.90;;
20844;SDS011;10583;49.084;8.646;2023-05-10T02:26:56;3.10;;;3.10;;
20844;SDS011;10583;49.084;8.646;2023-05-10T02:29:24;3.30;;;3.30;;
20844;SDS011;10583;49.084;8.646;2023-05-10T02:31:53;3.20;;;3.20;;
20844;SDS011;10583;49.084;8.646;2023-05-10T02:34:21;3.50;;;3.50;;
20844;SDS011;10583;49.084;8.646;2023-05-10T02:36:49;3.50;;;3.50;;
20844;SDS011;10583;49.084;8.646;2023-05-10T02:39:19;4.23;;;4.23;;
20844;SDS011;10583;49.084;8.646;2023-05-10T02:41:48;3.70;;;3.70;;
20844;SDS011;10583;49.084;8.646;2023-05-10T02:44:17;4.50;;;4.50;;
20844;SDS011;10583;49.084;8.646;2023-05-10T02:46:44;5.17;;;5.17;;
20844;SDS011;10583;49.084;8.646;2023-05-10T02:49:12;4.90;;;4.90;;
20844;SDS011;10583;49.084;8.646;2023-05-10T02:51:40;4.90;;;4.90;;
20844;SDS011;10583;49.084;8.646;2023-05-10T02:54:12;4.77;;;4.77;;
20844;SDS011;10583;49.084;8.646;2023-05-10T02:56:47;5.40;;;5.40;;
20844;SDS011;10583;49.084;8.646;2023-05-10T02:59:16;5.30;;;5.30;;
20844;SDS011;10583;49.084;8.646;2023-05-10T03:01:43;5.40;;;5.40;;
20844;SDS011;10583;49.084;8.646;2023-05-10T03:04:10;5.30;;;5.30;;
20844;SDS011;10583;49.084;8.646;2023-05-10T03:06:36;5.70;;;5.70;;
20844;SDS011;10583;49.084;8.646;2023-05-10T03:09:03;5.43;;;5.43;;
20844;SDS011;10583;49.084;8.646;2023-05-10T03:11:37;5.60;;;5.60;;
20844;SDS011;10583;49.084;8.646;2023-05-10T03:14:16;5.77;;;5.77;;
20844;SDS011;10583;49.084;8.646;2023-05-10T03:16:52;6.17;;;6.17;;
20844;SDS011;10583;49.084;8.646;2023-05-10T03:19:24;6.73;;;6.73;;
20844;SDS011;10583;49.084;8.646;2023-05-10T03:21:56;6.33;;;6.33;;
20844;SDS011;10583;49.084;8.646;2023-05-10T03:24:29;6.30;;;6.30;;
20844;SDS011;10583;49.084;8.646;2023-05-10T03:26:57;6.20;;;6.20;;
20844;SDS011;10583;49.084;8.646;2023-05-10T03:29:29;6.47;;;6.47;;
20844;SDS011;10583;49.084;8.646;2023-05-10T03:31:57;6.67;;;6.67;;
20844;SDS011;10583;49.084;8.646;2023-05-10T03:34:24;7.10;;;7.10;;
20844;SDS011;10583;49.084;8.646;2023-05-10T03:36:51;5.90;;;5.90;;
20844;SDS011;10583;49.084;8.646;2023-05-10T03:39:18;5.67;;;5.67;;
20844;SDS011;10583;49.084;8.646;2023-05-10T03:41:46;5.40;;;5.40;;
20844;SDS011;10583;49.084;8.646;2023-05-10T03:44:12;5.47;;;5.47;;
20844;SDS011;10583;49.084;8.646;2023-05-10T03:46:40;5.30;;;5.30;;
20844;SDS011;10583;49.084;8.646;2023-05-10T03:49:07;5.70;;;5.70;;
20844;SDS011;10583;49.084;8.646;2023-05-10T03:51:34;5.43;;;5.43;;
20844;SDS011;10583;49.084;8.646;2023-05-10T03:54:00;5.87;;;5.87;;
20844;SDS011;10583;49.084;8.646;2023-05-10T03:56:27;6.10;;;6.10;;
20844;SDS011;10583;49.084;8.646;2023-05-10T03:58:55;5.50;;;5.50;;
20844;SDS011;10583;49.084;8.646;2023-05-10T04:01:21;5.20;;;5.20;;
20844;SDS011;10583;49.084;8.646;2023-05-10T04:03:49;5.40;;;5.40;;
20844;SDS011;10583;49.084;8.646;2023-05-10T04:06:16;5.80;;;5.80;;
20844;SDS011;10583;49.084;8.646;2023-05-10T04:08:42;6.20;;;6.20;;
20844;SDS011;10583;49.084;8.646;2023-05-10T04:11:10;6.33;;;6.33;;
20844;SDS011;10583;49.084;8.646;2023-05-10T04:13:37;6.80;;;6.80;;
20844;SDS011;10583;49.084;8.646;2023-05-10T04:16:04;6.17;;;6.17;;
20844;SDS011;10583;49.084;8.646;2023-05-10T04:18:31;6.33;;;6.33;;
20844;SDS011;10583;49.084;8.646;2023-05-10T04:20:59;6.13;;;6.13;;
20844;SDS011;10583;49.084;8.646;2023-05-10T04:23:26;5.70;;;5.70;;
20844;SDS011;10583;49.084;8.646;2023-05-10T04:25:59;6.10;;;6.10;;
20844;SDS011;10583;49.084;8.646;2023-05-10T04:28:26;5.63;;;5.63;;
20844;SDS011;10583;49.084;8.646;2023-05-10T04:30:53;6.00;;;6.00;;
20844;SDS011;10583;49.084;8.646;2023-05-10T04:33:26;5.60;;;5.60;;
20844;SDS011;10583;49.084;8.646;2023-05-10T04:35:53;5.23;;;5.23;;
20844;SDS011;10583;49.084;8.646;2023-05-10T04:38:21;5.50;;;5.50;;
20844;SDS011;10583;49.084;8.646;2023-05-10T04:40:47;5.20;;;5.20;;
20844;SDS011;10583;49.084;8.646;2023-05-10T04:43:14;5.07;;;5.07;;
20844;SDS011;10583;49.084;8.646;2023-05-10T04:45:41;5.13;;;5.13;;
20844;SDS011;10583;49.084;8.646;2023-05-10T04:48:08;4.77;;;4.77;;
20844;SDS011;10583;49.084;8.646;2023-05-10T04:50:35;4.53;;;4.53;;
20844;SDS011;10583;49.084;8.646;2023-05-10T04:53:01;4.03;;;4.03;;
20844;SDS011;10583;49.084;8.646;2023-05-10T04:55:30;3.93;;;3.93;;
20844;SDS011;10583;49.084;8.646;2023-05-10T04:57:56;4.37;;;4.37;;
20844;SDS011;10583;49.084;8.646;2023-05-10T05:00:24;3.53;;;3.53;;
20844;SDS011;10583;49.084;8.646;2023-05-10T05:02:51;3.63;;;3.63;;
20844;SDS011;10583;49.084;8.646;2023-05-10T05:05:17;4.27;;;4.27;;
20844;SDS011;10583;49.084;8.646;2023-05-10T05:07:44;4.20;;;4.20;;
20844;SDS011;10583;49.084;8.646;2023-05-10T05:10:11;4.50;;;4.50;;
20844;SDS011;10583;49.084;8.646;2023-05-10T05:12:39;4.10;;;4.10;;
20844;SDS011;10583;49.084;8.646;2023-05-10T05:15:06;4.03;;;4.03;;
20844;SDS011;10583;49.084;8.646;2023-05-10T05:17:34;4.10;;;4.10;;
20844;SDS011;10583;49.084;8.646;2023-05-10T05:20:01;4.20;;;4.20;;
20844;SDS011;10583;49.084;8.646;2023-05-10T05:22:28;4.03;;;4.03;;
20844;SDS011;10583;49.084;8.646;2023-05-10T05:24:55;4.10;;;4.10;;
20844;SDS011;10583;49.084;8.646;2023-05-10T05:27:23;3.10;;;3.10;;
20844;SDS011;10583;49.084;8.646;2023-05-10T05:29:53;3.40;;;3.40;;
20844;SDS011;10583;49.084;8.646;2023-05-10T05:32:20;3.37;;;3.37;;
20844;SDS011;10583;49.084;8.646;2023-05-10T05:34:47;3.30;;;3.30;;
20844;SDS011;10583;49.084;8.646;2023-05-10T05:37:13;3.70;;;3.70;;
20844;SDS011;10583;49.084;8.646;2023-05-10T05:39:40;4.57;;;4.57;;
20844;SDS011;10583;49.084;8.646;2023-05-10T05:42:08;3.90;;;3.90;;
20844;SDS011;10583;49.084;8.646;2023-05-10T05:44:35;4.20;;;4.20;;
20844;SDS011;10583;49.084;8.646;2023-05-10T05:47:03;4.20;;;4.20;;
20844;SDS011;10583;49.084;8.646;2023-05-10T05:49:30;4.13;;;4.13;;
20844;SDS011;10583;49.084;8.646;2023-05-10T05:51:58;4.10;;;4.10;;
20844;SDS011;10583;49.084;8.646;2023-05-10T05:54:25;3.93;;;3.93;;
20844;SDS011;10583;49.084;8.646;2023-05-10T05:56:53;4.17;;;4.17;;
20844;SDS011;10583;49.084;8.646;2023-05-10T05:59:20;4.00;;;4.00;;
20844;SDS011;10583;49.084;8.646;2023-05-10T06:01:46;3.50;;;3.50;;
20844;SDS011;10583;49.084;8.646;2023-05-10T06:04:15;3.30;;;3.30;;
20844;SDS011;10583;49.084;8.646;2023-05-10T06:06:42;3.47;;;3.47;;
20844;SDS011;10583;49.084;8.646;2023-05-10T06:09:08;3.30;;;3.30;;
20844;SDS011;10583;49.084;8.646;2023-05-10T06:11:35;3.10;;;3.10;;
20844;SDS011;10583;49.084;8.646;2023-05-10T06:14:03;3.10;;;3.10;;
20844;SDS011;10583;49.084;8.646;2023-05-10T06:16:32;3.10;;;3.10;;
20844;SDS011;10583;49.084;8.646;2023-05-10T06:18:59;3.07;;;3.07;;
20844;SDS011;10583;49.084;8.646;2023-05-10T06:21:27;2.80;;;2.80;;
20844;SDS011;10583;49.084;8.646;2023-05-10T06:23:53;2.53;;;2.53;;
20844;SDS011;10583;49.084;8.646;2023-05-10T06:26:20;2.50;;;2.50;;
20844;SDS011;10583;49.084;8.646;2023-05-10T06:28:47;2.67;;;2.67;;
20844;SDS011;10583;49.084;8.646;2023-05-10T06:31:14;2.23;;;2.23;;
20844;SDS011;10583;49.084;8.646;2023-05-10T06:33:41;2.13;;;2.13;;
20844;SDS011;10583;49.084;8.646;2023-05-10T06:36:07;2.40;;;2.40;;
20844;SDS011;10583;49.084;8.646;2023-05-10T06:38:35;1.83;;;1.83;;
20844;SDS011;10583;49.084;8.646;2023-05-10T06:41:02;2.00;;;2.00;;
20844;SDS011;10583;49.084;8.646;2023-05-10T06:43:29;2.10;;;2.10;;
20844;SDS011;10583;49.084;8.646;2023-05-10T06:45:56;1.70;;;1.70;;
20844;SDS011;10583;49.084;8.646;2023-05-10T06:48:22;1.30;;;1.30;;
20844;SDS011;10583;49.084;8.646;2023-05-10T06:50:49;1.70;;;1.70;;
20844;SDS011;10583;49.084;8.646;2023-05-10T06:53:16;1.53;;;1.53;;
20844;SDS011;10583;49.084;8.646;2023-05-10T06:55:44;1.50;;;1.50;;
20844;SDS011;10583;49.084;8.646;2023-05-10T06:58:11;1.50;;;1.50;;
20844;SDS011;10583;49.084;8.646;2023-05-10T07:00:38;1.53;;;1.53;;
20844;SDS011;10583;49.084;8.646;2023-05-10T07:03:05;1.40;;;1.40;;
20844;SDS011;10583;49.084;8.646;2023-05-10T07:05:32;1.70;;;1.70;;
20844;SDS011;10583;49.084;8.646;2023-05-10T07:07:58;1.40;;;1.40;;
20844;SDS011;10583;49.084;8.646;2023-05-10T07:10:25;1.40;;;1.40;;
20844;SDS011;10583;49.084;8.646;2023-05-10T07:12:53;1.60;;;1.60;;
20844;SDS011;10583;49.084;8.646;2023-05-10T07:15:20;1.40;;;1.40;;
20844;SDS011;10583;49.084;8.646;2023-05-10T07:17:47;1.40;;;1.40;;
20844;SDS011;10583;49.084;8.646;2023-05-10T07:20:14;1.60;;;1.60;;
20844;SDS011;10583;49.084;8.646;2023-05-10T07:22:41;1.13;;;1.13;;
20844;SDS011;10583;49.084;8.646;2023-05-10T07:25:08;1.30;;;1.30;;
20844;SDS011;10583;49.084;8.646;2023-05-10T07:27:34;1.20;;;1.20;;
20844;SDS011;10583;49.084;8.646;2023-05-10T07:30:03;1.50;;;1.50;;
20844;SDS011;10583;49.084;8.646;2023-05-10T07:32:30;1.40;;;1.40;;
20844;SDS011;10583;49.084;8.646;2023-05-10T07:34:57;1.30;;;1.30;;
20844;SDS011;10583;49.084;8.646;2023-05-10T07:37:23;1.17;;;1.17;;
20844;SDS011;10583;49.084;8.646;2023-05-10T07:39:50;1.30;;;1.30;;
20844;SDS011;10583;49.084;8.646;2023-05-10T07:42:17;1.30;;;1.30;;
20844;SDS011;10583;49.084;8.646;2023-05-10T07:44:43;1.10;;;1.10;;
20844;SDS011;10583;49.084;8.646;2023-05-10T07:47:11;1.30;;;1.30;;
20844;SDS011;10583;49.084;8.646;2023-05-10T07:49:38;1.33;;;1.33;;
20844;SDS011;10583;49.084;8.646;2023-05-10T07:52:05;1.40;;;1.40;;
20844;SDS011;10583;49.084;8.646;2023-05-10T07:54:31;1.17;;;1.17;;
20844;SDS011;10583;49.084;8.646;2023-05-10T07:56:59;1.20;;;1.20;;
20844;SDS011;10583;49.084;8.646;2023-05-10T07:59:25;1.23;;;1.23;;
20844;SDS011;10583;49.084;8.646;2023-05-10T08:01:52;1.13;;;1.13;;
20844;SDS011;10583;49.084;8.646;2023-05-10T08:04:20;0.80;;;0.80;;
20844;SDS011;10583;49.084;8.646;2023-05-10T08:06:47;1.10;;;1.10;;
20844;SDS011;10583;49.084;8.646;2023-05-10T08:09:14;1.10;;;1.10;;
20844;SDS011;10583;49.084;8.646;2023-05-10T08:11:42;1.27;;;1.27;;
20844;SDS011;10583;49.084;8.646;2023-05-10T08:14:09;1.10;;;1.10;;
20844;SDS011;10583;49.084;8.646;2023-05-10T08:16:36;1.10;;;1.10;;
20844;SDS011;10583;49.084;8.646;2023-05-10T08:19:02;1.30;;;1.30;;
20844;SDS011;10583;49.084;8.646;2023-05-10T08:21:30;1.10;;;1.10;;
20844;SDS011;10583;49.084;8.646;2023-05-10T08:23:57;1.13;;;1.13;;
20844;SDS011;10583;49.084;8.646;2023-05-10T08:26:24;1.27;;;1.27;;
20844;SDS011;10583;49.084;8.646;2023-05-10T08:28:51;1.00;;;1.00;;
20844;SDS011;10583;49.084;8.646;2023-05-10T08:31:18;1.10;;;1.10;;
20844;SDS011;10583;49.084;8.646;2023-05-10T08:33:45;1.30;;;1.30;;
20844;SDS011;10583;49.084;8.646;2023-05-10T08:36:11;1.13;;;1.13;;
20844;SDS011;10583;49.084;8.646;2023-05-10T08:38:45;1.20;;;1.20;;
20844;SDS011;10583;49.084;8.646;2023-05-10T08:41:12;1.10;;;1.10;;
20844;SDS011;10583;49.084;8.646;2023-05-10T08:43:39;1.10;;;1.10;;
20844;SDS011;10583;49.084;8.646;2023-05-10T08:46:11;1.20;;;1.20;;
20844;SDS011;10583;49.084;8.646;2023-05-10T08:48:42;1.20;;;1.20;;
20844;SDS011;10583;49.084;8.646;2023-05-10T08:51:10;1.03;;;1.03;;
20844;SDS011;10583;49.084;8.646;2023-05-10T08:53:39;0.90;;;0.90;;
20844;SDS011;10583;49.084;8.646;2023-05-10T08:56:08;0.87;;;0.87;;
20844;SDS011;10583;49.084;8.646;2023-05-10T08:58:35;0.80;;;0.80;;
20844;SDS011;10583;49.084;8.646;2023-05-10T09:01:02;1.10;;;1.10;;
20844;SDS011;10583;49.084;8.646;2023-05-10T09:03:30;0.73;;;0.73;;
20844;SDS011;10583;49.084;8.646;2023-05-10T09:05:57;0.90;;;0.90;;
20844;SDS011;10583;49.084;8.646;2023-05-10T09:08:24;1.40;;;1.40;;
20844;SDS011;10583;49.084;8.646;2023-05-10T09:10:52;1.30;;;1.30;;
20844;SDS011;10583;49.084;8.646;2023-05-10T09:13:21;1.90;;;1.90;;
20844;SDS011;10583;49.084;8.646;2023-05-10T09:15:48;1.70;;;1.70;;
20844;SDS011;10583;49.084;8.646;2023-05-10T09:18:15;2.07;;;2.07;;
20844;SDS011;10583;49.084;8.646;2023-05-10T09:20:41;2.00;;;2.00;;
20844;SDS011;10583;49.084;8.646;2023-05-10T09:23:08;1.70;;;1.70;;
20844;SDS011;10583;49.084;8.646;2023-05-10T09:25:35;1.40;;;1.40;;
20844;SDS011;10583;49.084;8.646;2023-05-10T09:28:05;1.30;;;1.30;;
20844;SDS011;10583;49.084;8.646;2023-05-10T09:30:34;1.97;;;1.97;;
20844;SDS011;10583;49.084;8.646;2023-05-10T09:33:01;1.30;;;1.30;;
20844;SDS011;10583;49.084;8.646;2023-05-10T09:35:29;1.30;;;1.30;;
20844;SDS011;10583;49.084;8.646;2023-05-10T09:37:57;1.20;;;1.20;;
20844;SDS011;10583;49.084;8.646;2023-05-10T09:40:26;1.00;;;1.00;;
20844;SDS011;10583;49.084;8.646;2023-05-10T09:42:55;1.20;;;1.20;;
20844;SDS011;10583;49.084;8.646;2023-05-10T09:45:23;1.10;;;1.10;;
20844;SDS011;10583;49.084;8.646;2023-05-10T09:47:52;1.10;;;1.10;;
20844;SDS011;10583;49.084;8.646;2023-05-10T09:50:19;1.03;;;1.03;;
20844;SDS011;10583;49.084;8.646;2023-05-10T09:52:47;1.03;;;1.03;;
20844;SDS011;10583;49.084;8.646;2023-05-10T09:55:15;0.93;;;0.93;;
20844;SDS011;10583;49.084;8.646;2023-05-10T09:57:42;1.00;;;1.00;;
20844;SDS011;10583;49.084;8.646;2023-05-10T10:00:09;1.10;;;1.10;;
20844;SDS011;10583;49.084;8.646;2023-05-10T10:02:42;1.10;;;1.10;;
20844;SDS011;10583;49.084;8.646;2023-05-10T10:05:10;1.10;;;1.10;;
20844;SDS011;10583;49.084;8.646;2023-05-10T10:07:37;0.90;;;0.90;;
20844;SDS011;10583;49.084;8.646;2023-05-10T10:10:05;0.87;;;0.87;;
20844;SDS011;10583;49.084;8.646;2023-05-10T10:12:36;1.23;;;1.23;;
20844;SDS011;10583;49.084;8.646;2023-05-10T10:15:03;0.90;;;0.90;;
20844;SDS011;10583;49.084;8.646;2023-05-10T10:17:31;0.83;;;0.83;;
20844;SDS011;10583;49.084;8.646;2023-05-10T10:20:02;0.80;;;0.80;;
20844;SDS011;10583;49.084;8.646;2023-05-10T10:22:30;0.83;;;0.83;;
20844;SDS011;10583;49.084;8.646;2023-05-10T10:24:57;0.70;;;0.70;;
20844;SDS011;10583;49.084;8.646;2023-05-10T10:27:26;0.60;;;0.60;;
20844;SDS011;10583;49.084;8.646;2023-05-10T10:30:13;1.03;;;1.03;;
20844;SDS011;10583;49.084;8.646;2023-05-10T10:32:51;0.70;;;0.70;;
20844;SDS011;10583;49.084;8.646;2023-05-10T10:35:37;1.00;;;1.00;;
20844;SDS011;10583;49.084;8.646;2023-05-10T10:38:07;0.73;;;0.73;;
20844;SDS011;10583;49.084;8.646;2023-05-10T10:40:34;0.67;;;0.67;;
20844;SDS011;10583;49.084;8.646;2023-05-10T10:48:38;0.90;;;0.90;;
20844;SDS011;10583;49.084;8.646;2023-05-10T10:51:05;0.80;;;0.80;;
20844;SDS011;10583;49.084;8.646;2023-05-10T10:53:33;0.70;;;0.70;;
20844;SDS011;10583;49.084;8.646;2023-05-10T10:56:07;0.90;;;0.90;;
20844;SDS011;10583;49.084;8.646;2023-05-10T10:58:35;0.97;;;0.97;;
20844;SDS011;10583;49.084;8.646;2023-05-10T11:01:10;0.80;;;0.80;;
20844;SDS011;10583;49.084;8.646;2023-05-10T11:03:38;0.80;;;0.80;;
20844;SDS011;10583;49.084;8.646;2023-05-10T11:06:05;1.00;;;1.00;;
20844;SDS011;10583;49.084;8.646;2023-05-10T11:08:34;1.00;;;1.00;;
20844;SDS011;10583;49.084;8.646;2023-05-10T11:11:08;1.17;;;1.17;;
20844;SDS011;10583;49.084;8.646;2023-05-10T11:13:37;1.20;;;1.20;;
20844;SDS011;10583;49.084;8.646;2023-05-10T11:16:12;1.00;;;1.00;;
20844;SDS011;10583;49.084;8.646;2023-05-10T11:18:41;1.47;;;1.47;;
20844;SDS011;10583;49.084;8.646;2023-05-10T11:21:18;1.50;;;1.50;;
20844;SDS011;10583;49.084;8.646;2023-05-10T11:23:50;1.50;;;1.50;;
20844;SDS011;10583;49.084;8.646;2023-05-10T11:26:17;1.47;;;1.47;;
20844;SDS011;10583;49.084;8.646;2023-05-10T11:28:48;1.67;;;1.67;;
20844;SDS011;10583;49.084;8.646;2023-05-10T11:31:15;1.70;;;1.70;;
20844;SDS011;10583;49.084;8.646;2023-05-10T11:33:43;1.47;;;1.47;;
20844;SDS011;10583;49.084;8.646;2023-05-10T11:36:11;1.47;;;1.47;;
20844;SDS011;10583;49.084;8.646;2023-05-10T11:38:38;1.60;;;1.60;;
20844;SDS011;10583;49.084;8.646;2023-05-10T11:41:06;1.40;;;1.40;;
20844;SDS011;10583;49.084;8.646;2023-05-10T11:43:34;1.70;;;1.70;;
20844;SDS011;10583;49.084;8.646;2023-05-10T11:46:03;1.73;;;1.73;;
20844;SDS011;10583;49.084;8.646;2023-05-10T11:48:30;1.70;;;1.70;;
20844;SDS011;10583;49.084;8.646;2023-05-10T11:50:57;1.53;;;1.53;;
20844;SDS011;10583;49.084;8.646;2023-05-10T11:53:25;1.73;;;1.73;;
20844;SDS011;10583;49.084;8.646;2023-05-10T11:55:52;1.40;;;1.40;;
20844;SDS011;10583;49.084;8.646;2023-05-10T11:58:20;1.13;;;1.13;;
20844;SDS011;10583;49.084;8.646;2023-05-10T12:00:48;1.07;;;1.07;;
20844;SDS011;10583;49.084;8.646;2023-05-10T12:03:16;1.30;;;1.30;;
20844;SDS011;10583;49.084;8.646;2023-05-10T12:05:43;1.10;;;1.10;;
20844;SDS011;10583;49.084;8.646;2023-05-10T12:08:13;1.30;;;1.30;;
20844;SDS011;10583;49.084;8.646;2023-05-10T12:10:40;1.13;;;1.13;;
20844;SDS011;10583;49.084;8.646;2023-05-10T12:13:10;1.10;;;1.10;;
20844;SDS011;10583;49.084;8.646;2023-05-10T12:15:39;1.10;;;1.10;;
20844;SDS011;10583;49.084;8.646;2023-05-10T12:18:07;0.90;;;0.90;;
20844;SDS011;10583;49.084;8.646;2023-05-10T12:20:35;1.10;;;1.10;;
20844;SDS011;10583;49.084;8.646;2023-05-10T12:23:02;0.90;;;0.90;;
20844;SDS011;10583;49.084;8.646;2023-05-10T12:25:30;0.93;;;0.93;;
20844;SDS011;10583;49.084;8.646;2023-05-10T12:27:58;1.00;;;1.00;;
20844;SDS011;10583;49.084;8.646;2023-05-10T12:30:27;1.03;;;1.03;;
20844;SDS011;10583;49.084;8.646;2023-05-10T12:32:59;1.00;;;1.00;;
20844;SDS011;10583;49.084;8.646;2023-05-10T12:35:26;0.83;;;0.83;;
20844;SDS011;10583;49.084;8.646;2023-05-10T12:37:56;0.70;;;0.70;;
20844;SDS011;10583;49.084;8.646;2023-05-10T12:40:23;0.57;;;0.57;;
20844;SDS011;10583;49.084;8.646;2023-05-10T12:42:49;0.60;;;0.60;;
20844;SDS011;10583;49.084;8.646;2023-05-10T12:45:17;0.90;;;0.90;;
20844;SDS011;10583;49.084;8.646;2023-05-10T12:47:44;0.70;;;0.70;;
20844;SDS011;10583;49.084;8.646;2023-05-10T12:50:12;1.03;;;1.03;;
20844;SDS011;10583;49.084;8.646;2023-05-10T12:52:38;0.70;;;0.70;;
20844;SDS011;10583;49.084;8.646;2023-05-10T12:55:05;0.60;;;0.60;;
20844;SDS011;10583;49.084;8.646;2023-05-10T12:57:32;0.70;;;0.70;;
20844;SDS011;10583;49.084;8.646;2023-05-10T12:59:59;0.80;;;0.80;;
20844;SDS011;10583;49.084;8.646;2023-05-10T13:02:26;0.70;;;0.70;;
20844;SDS011;10583;49.084;8.646;2023-05-10T13:04:52;0.63;;;0.63;;
20844;SDS011;10583;49.084;8.646;2023-05-10T13:07:20;0.70;;;0.70;;
20844;SDS011;10583;49.084;8.646;2023-05-10T13:09:47;1.03;;;1.03;;
20844;SDS011;10583;49.084;8.646;2023-05-10T13:12:14;0.77;;;0.77;;
20844;SDS011;10583;49.084;8.646;2023-05-10T13:14:40;0.60;;;0.60;;
20844;SDS011;10583;49.084;8.646;2023-05-10T13:17:07;0.80;;;0.80;;
20844;SDS011;10583;49.084;8.646;2023-05-10T13:19:34;0.70;;;0.70;;
20844;SDS011;10583;49.084;8.646;2023-05-10T13:22:02;0.70;;;0.70;;
20844;SDS011;10583;49.084;8.646;2023-05-10T13:24:30;0.70;;;0.70;;
20844;SDS011;10583;49.084;8.646;2023-05-10T13:26:57;0.60;;;0.60;;
20844;SDS011;10583;49.084;8.646;2023-05-10T13:29:24;1.03;;;1.03;;
20844;SDS011;10583;49.084;8.646;2023-05-10T13:31:51;0.90;;;0.90;;
20844;SDS011;10583;49.084;8.646;2023-05-10T13:34:18;1.03;;;1.03;;
20844;SDS011;10583;49.084;8.646;2023-05-10T13:36:46;0.90;;;0.90;;
20844;SDS011;10583;49.084;8.646;2023-05-10T13:39:13;0.70;;;0.70;;
20844;SDS011;10583;49.084;8.646;2023-05-10T13:41:42;0.87;;;0.87;;
20844;SDS011;10583;49.084;8.646;2023-05-10T13:44:08;0.83;;;0.83;;
20844;SDS011;10583;49.084;8.646;2023-05-10T13:46:35;0.70;;;0.70;;
20844;SDS011;10583;49.084;8.646;2023-05-10T13:49:03;0.90;;;0.90;;
20844;SDS011;10583;49.084;8.646;2023-05-10T13:51:30;0.97;;;0.97;;
20844;SDS011;10583;49.084;8.646;2023-05-10T13:53:57;0.80;;;0.80;;
20844;SDS011;10583;49.084;8.646;2023-05-10T13:56:24;0.73;;;0.73;;
20844;SDS011;10583;49.084;8.646;2023-05-10T13:58:52;1.00;;;1.00;;
20844;SDS011;10583;49.084;8.646;2023-05-10T14:01:18;0.60;;;0.60;;
20844;SDS011;10583;49.084;8.646;2023-05-10T14:03:45;0.60;;;0.60;;
20844;SDS011;10583;49.084;8.646;2023-05-10T14:06:13;0.63;;;0.63;;
20844;SDS011;10583;49.084;8.646;2023-05-10T14:08:39;0.63;;;0.63;;
20844;SDS011;10583;49.084;8.646;2023-05-10T14:11:06;0.57;;;0.57;;
20844;SDS011;10583;49.084;8.646;2023-05-10T14:13:33;0.60;;;0.60;;
20844;SDS011;10583;49.084;8.646;2023-05-10T14:16:01;0.60;;;0.60;;
20844;SDS011;10583;49.084;8.646;2023-05-10T14:18:28;0.70;;;0.70;;
20844;SDS011;10583;49.084;8.646;2023-05-10T14:20:55;0.67;;;0.67;;
20844;SDS011;10583;49.084;8.646;2023-05-10T14:23:22;0.77;;;0.77;;
20844;SDS011;10583;49.084;8.646;2023-05-10T14:25:50;0.53;;;0.53;;
20844;SDS011;10583;49.084;8.646;2023-05-10T14:28:17;0.40;;;0.40;;
20844;SDS011;10583;49.084;8.646;2023-05-10T14:30:45;0.77;;;0.77;;
20844;SDS011;10583;49.084;8.646;2023-05-10T14:33:13;0.60;;;0.60;;
20844;SDS011;10583;49.084;8.646;2023-05-10T14:35:40;0.60;;;0.60;;
20844;SDS011;10583;49.084;8.646;2023-05-10T14:38:07;0.50;;;0.50;;
20844;SDS011;10583;49.084;8.646;2023-05-10T14:40:34;0.53;;;0.53;;
20844;SDS011;10583;49.084;8.646;2023-05-10T14:43:00;0.70;;;0.70;;
20844;SDS011;10583;49.084;8.646;2023-05-10T14:45:27;0.60;;;0.60;;
20844;SDS011;10583;49.084;8.646;2023-05-10T14:47:54;0.53;;;0.53;;
20844;SDS011;10583;49.084;8.646;2023-05-10T14:50:22;0.90;;;0.90;;
20844;SDS011;10583;49.084;8.646;2023-05-10T14:52:49;0.70;;;0.70;;
20844;SDS011;10583;49.084;8.646;2023-05-10T14:55:15;0.60;;;0.60;;
20844;SDS011;10583;49.084;8.646;2023-05-10T14:57:42;0.80;;;0.80;;
20844;SDS011;10583;49.084;8.646;2023-05-10T15:00:12;0.57;;;0.57;;
20844;SDS011;10583;49.084;8.646;2023-05-10T15:02:40;0.50;;;0.50;;